Kachidoki Maru — JD2272 — position and weather

sailwx.info

Track history (hours):
 
Tides and Currents Weather Stations Pressure Air Temp Water Temp Dewpoint Dewpoint Depression Visibility Wind Speed Wind Dir Waves Ship Positions

Kachidoki Maru

Last reported at 2018-Apr-25 21:23 UTC. Time now 2018-Apr-25 21:57 UTC.
Position N 35°38' E 139°46'.

Length 38 m.

Type: Pilot. MMSI: 431101146.

Date/timePositionNaut miles runAvg speedWind from/ knotsBaromVisibWave heightAir tempDewpointWater temp
2018-Apr-25 21:23N 35°38' E 139°46'0 0.0
2018-Apr-25 20:54N 35°38' E 139°46'0 0.0
2018-Apr-25 20:30N 35°38' E 139°46'0 0.0
2018-Apr-25 19:22N 35°38' E 139°46'0 0.0
2018-Apr-25 18:40N 35°38' E 139°46'0 0.1
2018-Apr-25 18:20N 35°38' E 139°46'0 0.0
2018-Apr-25 17:58N 35°38' E 139°46'0 0.0
2018-Apr-25 17:17N 35°38' E 139°46'0 0.0
2018-Apr-25 16:50N 35°38' E 139°46'0 0.0
2018-Apr-25 16:27N 35°38' E 139°46'0 0.0
2018-Apr-25 15:51N 35°38' E 139°46'0 0.0
2018-Apr-25 15:27N 35°38' E 139°46'0 0.0
2018-Apr-25 14:59N 35°38' E 139°46'0 0.0
2018-Apr-25 14:30N 35°38' E 139°46'0 0.0
2018-Apr-25 13:57N 35°38' E 139°46'0 0.0
2018-Apr-25 13:24N 35°38' E 139°46'0 0.0
2018-Apr-25 12:59N 35°38' E 139°46'0 0.0
2018-Apr-25 12:28N 35°38' E 139°46'0 0.0
2018-Apr-25 11:59N 35°38' E 139°46'0 0.0
2018-Apr-25 11:28N 35°38' E 139°46'0 0.0
2018-Apr-25 11:00N 35°38' E 139°46'0 0.0
2018-Apr-25 10:30N 35°38' E 139°46'0 0.0
2018-Apr-25 10:00N 35°38' E 139°46'0 0.0
2018-Apr-25 09:29N 35°38' E 139°46'0 0.0
2018-Apr-25 08:56N 35°38' E 139°46'0 0.0
2018-Apr-25 08:28N 35°38' E 139°46'0 0.0
2018-Apr-25 08:00N 35°38' E 139°46'0 0.0
2018-Apr-25 07:30N 35°38' E 139°46'0 0.0
2018-Apr-25 07:00N 35°38' E 139°46'0 0.1
2018-Apr-25 06:14N 35°38' E 139°45'0 0.2
2018-Apr-25 05:57N 35°38' E 139°46'0 0.0
2018-Apr-25 05:27N 35°38' E 139°46'0 0.0
2018-Apr-25 05:00N 35°38' E 139°46'0 0.0
2018-Apr-25 02:20N 35°38' E 139°46'0 0.0
2018-Apr-25 01:37N 35°38' E 139°46'0 0.0
2018-Apr-25 01:22N 35°38' E 139°46'0 0.0
2018-Apr-25 01:00N 35°38' E 139°46'0 0.0
2018-Apr-25 00:26N 35°38' E 139°46'0 0.0
2018-Apr-25 00:00N 35°38' E 139°46'0 0.0
2018-Apr-24 23:24N 35°38' E 139°46'0 0.0
2018-Apr-24 22:55N 35°38' E 139°46'0 0.0
2018-Apr-24 22:29N 35°38' E 139°46'0 0.0
2018-Apr-24 21:56N 35°38' E 139°46'0 0.0
2018-Apr-24 21:24N 35°38' E 139°46'0 0.0
2018-Apr-24 20:58N 35°38' E 139°46'0 0.0
2018-Apr-24 19:57N 35°38' E 139°46'0 0.0
2018-Apr-24 17:06N 35°38' E 139°46'1 9.5
2018-Apr-24 16:59N 35°37' E 139°46'2 2.3
2018-Apr-24 16:11N 35°35' E 139°47'1 5.7
2018-Apr-24 16:00N 35°36' E 139°47'0 0.3
2018-Apr-24 15:29N 35°37' E 139°47'2 4.0
2018-Apr-24 14:59N 35°38' E 139°45'0 0.0
2018-Apr-24 14:29N 35°38' E 139°45'2 3.9
2018-Apr-24 13:59N 35°37' E 139°47'0 0.1
2018-Apr-24 13:29N 35°36' E 139°47'3 5.9
2018-Apr-24 13:00N 35°34' E 139°49'2 3.7
2018-Apr-24 12:23N 35°35' E 139°47'0 0.0
2018-Apr-24 11:55N 35°35' E 139°47'0 0.0
2018-Apr-24 11:30N 35°35' E 139°47'0 0.0
2018-Apr-24 10:43N 35°35' E 139°47'0 0.0
2018-Apr-24 10:28N 35°35' E 139°47'2 3.8
2018-Apr-24 10:00N 35°37' E 139°46'0 0.8
2018-Apr-24 09:28N 35°37' E 139°46'1 1.7
2018-Apr-24 08:59N 35°38' E 139°46'0 0.0
2018-Apr-24 08:28N 35°38' E 139°46'0 0.0
2018-Apr-24 07:54N 35°38' E 139°46'0 0.0
2018-Apr-24 07:30N 35°38' E 139°46'0 0.0
2018-Apr-24 07:00N 35°38' E 139°46'0 0.0
2018-Apr-24 06:30N 35°38' E 139°46'0 0.0
2018-Apr-24 05:58N 35°38' E 139°46'0 0.0
2018-Apr-24 05:28N 35°38' E 139°46'0 0.0
2018-Apr-24 04:59N 35°38' E 139°46'0 0.0
2018-Apr-24 04:30N 35°38' E 139°46'0 0.0
2018-Apr-24 03:59N 35°38' E 139°46'0 0.0
2018-Apr-24 03:30N 35°38' E 139°46'2 3.4
2018-Apr-24 03:00N 35°37' E 139°47'2 3.1
2018-Apr-24 02:28N 35°38' E 139°46'0 0.0
2018-Apr-24 02:00N 35°38' E 139°46'0 0.0
2018-Apr-24 01:30N 35°38' E 139°46'0 0.0
2018-Apr-24 00:57N 35°38' E 139°46'0 0.0
2018-Apr-24 00:28N 35°38' E 139°46'0 0.0
2018-Apr-23 23:58N 35°38' E 139°46'1 2.1
2018-Apr-23 23:30N 35°37' E 139°46'1 1.3
2018-Apr-23 22:57N 35°37' E 139°46'3 5.6
2018-Apr-23 22:30N 35°35' E 139°48'2 3.5
2018-Apr-23 22:00N 35°36' E 139°47'2 4.8
2018-Apr-23 21:30N 35°38' E 139°46'0 0.0
2018-Apr-23 21:00N 35°38' E 139°46'0 0.0
2018-Apr-23 20:30N 35°38' E 139°46'0 0.0
2018-Apr-23 20:00N 35°38' E 139°46'0 0.0
2018-Apr-23 19:30N 35°38' E 139°46'0 0.0
2018-Apr-23 19:00N 35°38' E 139°46'0 0.0
2018-Apr-23 18:30N 35°38' E 139°46'0 0.0
2018-Apr-23 17:59N 35°38' E 139°46'0 0.0
2018-Apr-23 17:30N 35°38' E 139°46'0 0.0
2018-Apr-23 17:00N 35°38' E 139°46'0 0.0
2018-Apr-23 16:29N 35°38' E 139°46'0 0.0
2018-Apr-23 15:59N 35°38' E 139°46'0 0.0
2018-Apr-23 15:29N 35°38' E 139°46'0 0.0
2018-Apr-23 15:00N 35°38' E 139°46'0 0.0
2018-Apr-23 14:29N 35°38' E 139°46'0 0.0
2018-Apr-23 14:00N 35°38' E 139°46'0 0.0
2018-Apr-23 13:30N 35°38' E 139°46'0 0.0
2018-Apr-23 13:00N 35°38' E 139°46'0 0.0
2018-Apr-23 12:30N 35°38' E 139°46'0 0.0
2018-Apr-23 11:59N 35°38' E 139°46'0 0.0
2018-Apr-23 11:30N 35°38' E 139°46'0 0.0
2018-Apr-23 10:59N 35°38' E 139°46'0 0.0
2018-Apr-23 10:28N 35°38' E 139°46'0 0.0
2018-Apr-23 09:57N 35°38' E 139°46'2 3.7
2018-Apr-23 09:30N 35°37' E 139°46'1 1.4
2018-Apr-23 09:00N 35°37' E 139°46'1 0.6
2018-Apr-23 07:12N 35°38' E 139°45'0 0.0
2018-Apr-23 07:00N 35°38' E 139°45'0 0.0
2018-Apr-23 05:38N 35°38' E 139°45'0 0.0
2018-Apr-23 05:26N 35°38' E 139°45'0 0.0
2018-Apr-23 04:46N 35°38' E 139°45'0 0.0
2018-Apr-23 04:25N 35°38' E 139°45'2 4.9
2018-Apr-23 03:59N 35°36' E 139°47'1 1.1
2018-Apr-23 03:29N 35°37' E 139°46'2 2.2
2018-Apr-23 02:44N 35°38' E 139°45'0 0.0
2018-Apr-23 02:20N 35°38' E 139°45'0 0.0
2018-Apr-23 01:45N 35°38' E 139°45'0 0.0
2018-Apr-23 01:22N 35°38' E 139°45'0 0.0
2018-Apr-23 00:58N 35°38' E 139°45'0 0.0
2018-Apr-23 00:16N 35°38' E 139°45'0 0.0
2018-Apr-22 23:57N 35°38' E 139°45'0 0.0
2018-Apr-22 14:02N 35°38' E 139°45'0 0.0
2018-Apr-22 13:58N 35°38' E 139°45'0 0.1
2018-Apr-22 13:24N 35°38' E 139°46'0 0.1
2018-Apr-22 12:44N 35°38' E 139°45'0 0.0
2018-Apr-22 12:19N 35°38' E 139°45'0 0.0
2018-Apr-22 11:49N 35°38' E 139°45'0 0.0
2018-Apr-22 11:20N 35°38' E 139°45'0 0.0
2018-Apr-22 10:49N 35°38' E 139°45'2 5.6
2018-Apr-22 10:30N 35°37' E 139°46'0 0.3
2018-Apr-22 10:00N 35°37' E 139°47'1 1.6
2018-Apr-22 09:29N 35°37' E 139°46'1 2.0
2018-Apr-22 08:59N 35°38' E 139°46'0 0.0
2018-Apr-22 08:26N 35°38' E 139°46'0 0.0
2018-Apr-22 08:00N 35°38' E 139°46'0 0.0
2018-Apr-22 06:44N 35°38' E 139°46'0 0.0
2018-Apr-22 06:28N 35°38' E 139°46'0 0.0
2018-Apr-22 05:59N 35°38' E 139°46'0 0.0
2018-Apr-22 05:23N 35°38' E 139°46'0 0.0
2018-Apr-22 04:52N 35°38' E 139°46'0 0.0
2018-Apr-22 04:24N 35°38' E 139°46'0 0.0
2018-Apr-22 04:00N 35°38' E 139°46'0 0.0
2018-Apr-22 03:28N 35°38' E 139°46'0 0.0
2018-Apr-22 03:00N 35°38' E 139°46'0 0.0
2018-Apr-22 02:29N 35°38' E 139°46'0 0.0
2018-Apr-22 02:00N 35°38' E 139°46'0 0.0
2018-Apr-22 01:30N 35°38' E 139°46'1 2.5
2018-Apr-22 01:00N 35°37' E 139°46'1 1.6
2018-Apr-22 00:30N 35°37' E 139°47'1 2.5
2018-Apr-22 00:00N 35°37' E 139°48'2 3.9
2018-Apr-21 23:29N 35°36' E 139°51'1 1.3
2018-Apr-21 23:00N 35°36' E 139°50'3 5.2
2018-Apr-21 22:26N 35°36' E 139°46'2 4.1
2018-Apr-21 22:00N 35°35' E 139°48'1 1.3
2018-Apr-21 21:29N 35°35' E 139°47'3 5.7
2018-Apr-21 20:56N 35°38' E 139°45'0 0.0
2018-Apr-21 20:29N 35°38' E 139°45'0 0.0
2018-Apr-21 19:59N 35°38' E 139°45'0 0.0
2018-Apr-21 19:29N 35°38' E 139°45'0 0.0
2018-Apr-21 18:56N 35°38' E 139°45'0 0.0
2018-Apr-21 18:27N 35°38' E 139°45'0 0.0
2018-Apr-21 18:00N 35°38' E 139°45'0 0.0
2018-Apr-21 17:30N 35°38' E 139°45'0 0.0
2018-Apr-21 17:00N 35°38' E 139°45'0 0.0
2018-Apr-21 16:30N 35°38' E 139°45'0 0.1
2018-Apr-21 16:00N 35°38' E 139°46'0 0.1
2018-Apr-21 15:30N 35°38' E 139°45'0 0.0
2018-Apr-21 14:58N 35°38' E 139°45'0 0.0
2018-Apr-21 14:28N 35°38' E 139°45'0 0.0
2018-Apr-21 14:00N 35°38' E 139°45'0 0.0
2018-Apr-21 13:29N 35°38' E 139°45'0 0.0
2018-Apr-21 13:00N 35°38' E 139°45'0 0.0
2018-Apr-21 12:30N 35°38' E 139°45'0 0.0
2018-Apr-21 11:57N 35°38' E 139°45'0 0.0
2018-Apr-21 11:29N 35°38' E 139°45'2 4.2
2018-Apr-21 11:00N 35°36' E 139°46'0 0.8
2018-Apr-21 10:30N 35°36' E 139°47'3 5.7
2018-Apr-21 10:00N 35°34' E 139°49'2 3.5
2018-Apr-21 09:30N 35°35' E 139°48'1 0.6
2018-Apr-21 08:08N 35°36' E 139°47'1 4.9
2018-Apr-21 08:00N 35°36' E 139°47'1 2.5
2018-Apr-21 07:30N 35°37' E 139°46'2 1.5
2018-Apr-21 06:29N 35°38' E 139°45'0 0.0
2018-Apr-21 04:59N 35°38' E 139°45'0 0.0
2018-Apr-21 04:19N 35°38' E 139°45'0 0.0
2018-Apr-21 03:25N 35°38' E 139°45'0 0.0
2018-Apr-21 02:54N 35°38' E 139°45'0 0.0
2018-Apr-21 02:14N 35°38' E 139°45'0 0.0
2018-Apr-21 01:36N 35°38' E 139°45'0 0.2
2018-Apr-21 01:29N 35°38' E 139°45'0 0.0
2018-Apr-21 00:57N 35°38' E 139°45'0 0.0
2018-Apr-21 00:28N 35°38' E 139°45'0 0.0
2018-Apr-20 23:59N 35°38' E 139°45'0 0.0
2018-Apr-20 23:30N 35°38' E 139°45'2 4.1
2018-Apr-20 22:59N 35°36' E 139°46'1 1.1
2018-Apr-20 22:30N 35°36' E 139°47'4 8.5
2018-Apr-20 22:00N 35°33' E 139°51'2 4.1
2018-Apr-20 21:30N 35°33' E 139°53'5 9.8
2018-Apr-20 21:00N 35°35' E 139°48'1 0.7
2018-Apr-20 19:38N 35°36' E 139°47'1 6.1
2018-Apr-20 19:30N 35°36' E 139°46'0 0.6
2018-Apr-20 18:58N 35°37' E 139°46'0 0.7
2018-Apr-20 18:30N 35°37' E 139°46'1 2.4
2018-Apr-20 17:56N 35°38' E 139°45'0 0.0
2018-Apr-20 17:21N 35°38' E 139°45'0 0.0
2018-Apr-20 16:47N 35°38' E 139°45'0 0.0
2018-Apr-20 16:29N 35°38' E 139°45'0 0.0
2018-Apr-20 15:58N 35°38' E 139°45'0 0.0
2018-Apr-20 15:28N 35°38' E 139°45'0 0.0
2018-Apr-20 14:58N 35°38' E 139°45'0 0.0
2018-Apr-20 14:28N 35°38' E 139°45'0 0.0
2018-Apr-20 13:58N 35°38' E 139°45'0 0.0
2018-Apr-20 13:25N 35°38' E 139°45'0 0.0
2018-Apr-20 12:58N 35°38' E 139°45'0 0.0
2018-Apr-20 12:28N 35°38' E 139°45'0 0.0
2018-Apr-20 11:59N 35°38' E 139°45'0 0.0
2018-Apr-20 11:30N 35°38' E 139°45'0 0.0
2018-Apr-20 11:00N 35°38' E 139°45'0 0.0
2018-Apr-20 10:30N 35°38' E 139°45'0 0.0
2018-Apr-20 09:56N 35°38' E 139°45'0 0.0
2018-Apr-20 09:29N 35°38' E 139°45'0 0.0
2018-Apr-20 08:46N 35°38' E 139°45'0 0.0
2018-Apr-20 08:29N 35°38' E 139°45'0 0.0
2018-Apr-20 08:00N 35°38' E 139°45'0 0.0
2018-Apr-20 07:28N 35°38' E 139°45'0 0.0
2018-Apr-20 06:57N 35°38' E 139°45'0 0.0
2018-Apr-20 06:19N 35°38' E 139°45'0 0.0
2018-Apr-20 05:53N 35°38' E 139°45'0 0.0
2018-Apr-20 04:45N 35°38' E 139°45'0 0.0
2018-Apr-20 04:30N 35°38' E 139°45'0 0.0
2018-Apr-20 04:00N 35°38' E 139°45'0 0.0
2018-Apr-20 03:27N 35°38' E 139°45'2 4.0
2018-Apr-20 03:00N 35°37' E 139°47'1 2.8
2018-Apr-20 02:30N 35°35' E 139°47'2 4.2
2018-Apr-20 01:59N 35°34' E 139°49'3 1.9
2018-Apr-20 00:41N 35°35' E 139°47'0 0.2
2018-Apr-20 00:27N 35°35' E 139°47'1 2.1
2018-Apr-20 00:00N 35°36' E 139°46'0 0.5
2018-Apr-19 23:30N 35°36' E 139°46'2 3.1
2018-Apr-19 22:55N 35°38' E 139°46'0 0.0
2018-Apr-19 22:06N 35°38' E 139°46'0 0.0
2018-Apr-19 21:53N 35°38' E 139°46'0 0.0
2018-Apr-19 20:54N 35°38' E 139°46'0 0.0
2018-Apr-19 20:27N 35°38' E 139°46'0 0.0
2018-Apr-19 19:57N 35°38' E 139°46'0 0.0
2018-Apr-19 19:27N 35°38' E 139°46'0 0.0
2018-Apr-19 18:54N 35°38' E 139°46'0 0.0
2018-Apr-19 18:17N 35°38' E 139°46'0 0.0
2018-Apr-19 18:00N 35°38' E 139°46'0 0.0
2018-Apr-19 17:30N 35°38' E 139°46'0 0.0
2018-Apr-19 16:42N 35°38' E 139°46'0 0.0
2018-Apr-19 16:30N 35°38' E 139°46'0 0.0
2018-Apr-19 15:51N 35°38' E 139°46'0 0.0
2018-Apr-19 15:28N 35°38' E 139°46'0 0.0
2018-Apr-19 14:58N 35°38' E 139°46'0 0.0
2018-Apr-19 14:28N 35°38' E 139°46'0 0.0
2018-Apr-19 13:59N 35°38' E 139°46'0 0.0
2018-Apr-19 13:30N 35°38' E 139°46'0 0.0
2018-Apr-19 13:00N 35°38' E 139°46'0 0.0
2018-Apr-19 12:30N 35°38' E 139°46'0 0.0
2018-Apr-19 12:00N 35°38' E 139°46'0 0.0
2018-Apr-19 11:30N 35°38' E 139°46'0 0.0
2018-Apr-19 10:58N 35°38' E 139°46'0 0.0
2018-Apr-19 10:29N 35°38' E 139°46'0 0.0
2018-Apr-19 09:53N 35°38' E 139°46'0 0.0
2018-Apr-19 09:28N 35°38' E 139°46'0 0.0
2018-Apr-19 08:57N 35°38' E 139°46'2 4.0
2018-Apr-19 08:30N 35°37' E 139°46'0 0.7
2018-Apr-19 08:00N 35°37' E 139°47'2 3.2
2018-Apr-19 07:23N 35°38' E 139°45'0 0.1
2018-Apr-19 06:54N 35°38' E 139°45'0 0.0
2018-Apr-19 06:28N 35°38' E 139°45'0 0.0
2018-Apr-19 05:51N 35°38' E 139°45'0 0.0
2018-Apr-19 05:29N 35°38' E 139°45'0 0.0
2018-Apr-19 05:00N 35°38' E 139°45'0 0.0
2018-Apr-19 04:30N 35°38' E 139°45'0 0.0
2018-Apr-19 03:59N 35°38' E 139°45'0 0.0
2018-Apr-19 03:19N 35°38' E 139°45'0 0.0
2018-Apr-19 02:59N 35°38' E 139°45'0 0.0
2018-Apr-19 02:28N 35°38' E 139°45'1 2.4
2018-Apr-19 01:58N 35°37' E 139°46'2 5.0
2018-Apr-19 01:30N 35°35' E 139°48'1 1.8
2018-Apr-19 00:58N 35°34' E 139°48'3 6.7
2018-Apr-19 00:30N 35°37' E 139°46'1 2.4
2018-Apr-19 00:00N 35°38' E 139°45'0 0.0
2018-Apr-18 17:09N 35°38' E 139°45'0 0.0
2018-Apr-18 14:04N 35°38' E 139°45'0 0.0
2018-Apr-18 13:56N 35°38' E 139°45'0 0.0
2018-Apr-18 13:26N 35°38' E 139°45'0 0.0
2018-Apr-18 09:33N 35°38' E 139°45'0 6.2
2018-Apr-18 09:30N 35°38' E 139°46'2 3.6
2018-Apr-18 09:00N 35°36' E 139°46'1 2.9
2018-Apr-18 08:30N 35°35' E 139°47'1 0.6
2018-Apr-18 07:16N 35°36' E 139°47'1 1.8
2018-Apr-18 06:55N 35°36' E 139°46'1 2.1
2018-Apr-18 06:27N 35°37' E 139°46'1 2.2
2018-Apr-18 05:54N 35°38' E 139°45'0 0.0
2018-Apr-18 05:29N 35°38' E 139°45'0 0.0
2018-Apr-18 04:53N 35°38' E 139°45'0 0.0
2018-Apr-18 04:28N 35°38' E 139°45'0 0.0
2018-Apr-18 03:57N 35°38' E 139°45'0 0.0
2018-Apr-18 03:24N 35°38' E 139°45'2 3.9
2018-Apr-18 03:00N 35°37' E 139°46'1 1.7
2018-Apr-18 02:30N 35°36' E 139°47'0 0.4
2018-Apr-18 02:00N 35°36' E 139°46'1 2.0
2018-Apr-18 01:29N 35°37' E 139°46'1 1.6
2018-Apr-18 00:32N 35°38' E 139°45'0 0.0
2018-Apr-18 00:05N 35°38' E 139°45'0 0.0
2018-Apr-17 23:43N 35°38' E 139°45'0 0.0
2018-Apr-17 23:30N 35°38' E 139°45'0 0.0
2018-Apr-17 16:16N 35°38' E 139°45'0 0.0
2018-Apr-17 15:05N 35°38' E 139°45'0 0.0
2018-Apr-17 14:44N 35°38' E 139°45'0 0.0
2018-Apr-17 14:01N 35°38' E 139°45'0 0.0
2018-Apr-17 13:45N 35°38' E 139°45'0 0.0
2018-Apr-17 13:25N 35°38' E 139°45'0 0.0
2018-Apr-17 12:54N 35°38' E 139°45'0 0.0
2018-Apr-17 10:18N 35°38' E 139°45'2 5.8
2018-Apr-17 10:00N 35°37' E 139°47'1 1.0
2018-Apr-17 09:30N 35°36' E 139°47'3 5.2
2018-Apr-17 09:00N 35°34' E 139°49'1 1.2
2018-Apr-17 08:30N 35°34' E 139°49'3 6.5
2018-Apr-17 08:00N 35°36' E 139°46'1 1.7
2018-Apr-17 07:29N 35°37' E 139°46'1 2.4
2018-Apr-17 06:56N 35°38' E 139°45'0 0.0
2018-Apr-17 06:22N 35°38' E 139°45'0 0.1
2018-Apr-17 05:56N 35°38' E 139°45'0 0.1
2018-Apr-17 05:28N 35°38' E 139°45'0 0.0
2018-Apr-17 00:33N 35°38' E 139°45'0 0.0
2018-Apr-17 00:23N 35°38' E 139°45'0 0.0
2018-Apr-16 23:59N 35°38' E 139°45'2 2.9
2018-Apr-16 23:28N 35°37' E 139°46'0 0.8
2018-Apr-16 22:59N 35°36' E 139°46'1 1.5
2018-Apr-16 22:30N 35°36' E 139°47'3 5.7
2018-Apr-16 22:00N 35°34' E 139°49'2 4.5
2018-Apr-16 21:29N 35°36' E 139°48'0 0.0
2018-Apr-16 21:00N 35°36' E 139°48'1 1.7
2018-Apr-16 20:30N 35°37' E 139°47'1 1.7
2018-Apr-16 19:59N 35°37' E 139°46'1 2.4
2018-Apr-16 19:27N 35°38' E 139°45'0 0.0
2018-Apr-16 18:57N 35°38' E 139°45'0 0.0
2018-Apr-16 18:29N 35°38' E 139°45'0 0.0
2018-Apr-16 17:57N 35°38' E 139°45'0 0.0
2018-Apr-16 17:30N 35°38' E 139°45'0 0.0
2018-Apr-16 17:00N 35°38' E 139°45'0 0.0
2018-Apr-16 16:30N 35°38' E 139°45'0 0.0
2018-Apr-16 16:00N 35°38' E 139°45'0 0.0
2018-Apr-16 15:27N 35°38' E 139°45'0 0.0
2018-Apr-16 15:00N 35°38' E 139°45'0 0.0
2018-Apr-16 14:24N 35°38' E 139°45'0 0.0
2018-Apr-16 13:43N 35°38' E 139°45'0 0.0
2018-Apr-16 12:47N 35°38' E 139°45'0 0.0
2018-Apr-16 12:30N 35°38' E 139°45'0 0.0
2018-Apr-16 11:51N 35°38' E 139°45'0 0.0
2018-Apr-16 11:24N 35°38' E 139°45'0 0.0
2018-Apr-16 10:56N 35°38' E 139°45'0 0.0
2018-Apr-16 10:30N 35°38' E 139°45'0 0.0
2018-Apr-16 09:59N 35°38' E 139°45'0 0.0
2018-Apr-16 09:24N 35°38' E 139°45'0 0.0
2018-Apr-16 09:00N 35°38' E 139°45'0 0.0
2018-Apr-16 08:30N 35°38' E 139°45'0 0.0
2018-Apr-16 07:56N 35°38' E 139°45'0 0.0
2018-Apr-16 07:29N 35°38' E 139°45'0 0.0
2018-Apr-16 07:00N 35°38' E 139°45'0 0.1
2018-Apr-16 06:30N 35°38' E 139°46'0 0.1
2018-Apr-16 05:59N 35°38' E 139°45'0 0.0
2018-Apr-16 05:29N 35°38' E 139°45'0 0.0
2018-Apr-16 04:59N 35°38' E 139°45'0 0.0
2018-Apr-16 04:27N 35°38' E 139°45'0 0.0
2018-Apr-16 03:12N 35°38' E 139°45'0 0.0
2018-Apr-16 02:54N 35°38' E 139°45'0 0.0
2018-Apr-16 02:28N 35°38' E 139°45'0 0.0
2018-Apr-16 01:59N 35°38' E 139°45'0 0.0
2018-Apr-16 01:28N 35°38' E 139°45'0 0.0
2018-Apr-16 00:53N 35°38' E 139°45'0 0.0
2018-Apr-16 00:20N 35°38' E 139°45'0 0.0
2018-Apr-15 23:59N 35°38' E 139°45'2 3.8
2018-Apr-15 23:30N 35°36' E 139°46'0 0.1
2018-Apr-15 23:00N 35°36' E 139°46'1 1.7
2018-Apr-15 22:29N 35°36' E 139°47'2 4.4
2018-Apr-15 21:59N 35°34' E 139°49'1 1.4
2018-Apr-15 21:30N 35°34' E 139°49'  
Track history (hours):
 
Tides and Currents Weather Stations Pressure Air Temp Water Temp Dewpoint Dewpoint Depression Visibility Wind Speed Wind Dir Waves Ship Positions

Kachidoki Maru

Last reported at 2018-Apr-25 21:23 UTC. Time now 2018-Apr-25 21:57 UTC.
Position N 35°38' E 139°46'.

Length 38 m.

Type: Pilot. MMSI: 431101146.

Date/timePositionNaut miles runAvg speedWind from/ knotsBaromVisibWave heightAir tempDewpointWater temp
2018-Apr-25 21:23N 35°38' E 139°46'0 0.0
2018-Apr-25 20:54N 35°38' E 139°46'0 0.0
2018-Apr-25 20:30N 35°38' E 139°46'0 0.0
2018-Apr-25 19:22N 35°38' E 139°46'0 0.0
2018-Apr-25 18:40N 35°38' E 139°46'0 0.1
2018-Apr-25 18:20N 35°38' E 139°46'0 0.0
2018-Apr-25 17:58N 35°38' E 139°46'0 0.0
2018-Apr-25 17:17N 35°38' E 139°46'0 0.0
2018-Apr-25 16:50N 35°38' E 139°46'0 0.0
2018-Apr-25 16:27N 35°38' E 139°46'0 0.0
2018-Apr-25 15:51N 35°38' E 139°46'0 0.0
2018-Apr-25 15:27N 35°38' E 139°46'0 0.0
2018-Apr-25 14:59N 35°38' E 139°46'0 0.0
2018-Apr-25 14:30N 35°38' E 139°46'0 0.0
2018-Apr-25 13:57N 35°38' E 139°46'0 0.0
2018-Apr-25 13:24N 35°38' E 139°46'0 0.0
2018-Apr-25 12:59N 35°38' E 139°46'0 0.0
2018-Apr-25 12:28N 35°38' E 139°46'0 0.0
2018-Apr-25 11:59N 35°38' E 139°46'0 0.0
2018-Apr-25 11:28N 35°38' E 139°46'0 0.0
2018-Apr-25 11:00N 35°38' E 139°46'0 0.0
2018-Apr-25 10:30N 35°38' E 139°46'0 0.0
2018-Apr-25 10:00N 35°38' E 139°46'0 0.0
2018-Apr-25 09:29N 35°38' E 139°46'0 0.0
2018-Apr-25 08:56N 35°38' E 139°46'0 0.0
2018-Apr-25 08:28N 35°38' E 139°46'0 0.0
2018-Apr-25 08:00N 35°38' E 139°46'0 0.0
2018-Apr-25 07:30N 35°38' E 139°46'0 0.0
2018-Apr-25 07:00N 35°38' E 139°46'0 0.1
2018-Apr-25 06:14N 35°38' E 139°45'0 0.2
2018-Apr-25 05:57N 35°38' E 139°46'0 0.0
2018-Apr-25 05:27N 35°38' E 139°46'0 0.0
2018-Apr-25 05:00N 35°38' E 139°46'0 0.0
2018-Apr-25 02:20N 35°38' E 139°46'0 0.0
2018-Apr-25 01:37N 35°38' E 139°46'0 0.0
2018-Apr-25 01:22N 35°38' E 139°46'0 0.0
2018-Apr-25 01:00N 35°38' E 139°46'0 0.0
2018-Apr-25 00:26N 35°38' E 139°46'0 0.0
2018-Apr-25 00:00N 35°38' E 139°46'0 0.0
2018-Apr-24 23:24N 35°38' E 139°46'0 0.0
2018-Apr-24 22:55N 35°38' E 139°46'0 0.0
2018-Apr-24 22:29N 35°38' E 139°46'0 0.0
2018-Apr-24 21:56N 35°38' E 139°46'0 0.0
2018-Apr-24 21:24N 35°38' E 139°46'0 0.0
2018-Apr-24 20:58N 35°38' E 139°46'0 0.0
2018-Apr-24 19:57N 35°38' E 139°46'0 0.0
2018-Apr-24 17:06N 35°38' E 139°46'1 9.5
2018-Apr-24 16:59N 35°37' E 139°46'2 2.3
2018-Apr-24 16:11N 35°35' E 139°47'1 5.7
2018-Apr-24 16:00N 35°36' E 139°47'0 0.3
2018-Apr-24 15:29N 35°37' E 139°47'2 4.0
2018-Apr-24 14:59N 35°38' E 139°45'0 0.0
2018-Apr-24 14:29N 35°38' E 139°45'2 3.9
2018-Apr-24 13:59N 35°37' E 139°47'0 0.1
2018-Apr-24 13:29N 35°36' E 139°47'3 5.9
2018-Apr-24 13:00N 35°34' E 139°49'2 3.7
2018-Apr-24 12:23N 35°35' E 139°47'0 0.0
2018-Apr-24 11:55N 35°35' E 139°47'0 0.0
2018-Apr-24 11:30N 35°35' E 139°47'0 0.0
2018-Apr-24 10:43N 35°35' E 139°47'0 0.0
2018-Apr-24 10:28N 35°35' E 139°47'2 3.8
2018-Apr-24 10:00N 35°37' E 139°46'0 0.8
2018-Apr-24 09:28N 35°37' E 139°46'1 1.7
2018-Apr-24 08:59N 35°38' E 139°46'0 0.0
2018-Apr-24 08:28N 35°38' E 139°46'0 0.0
2018-Apr-24 07:54N 35°38' E 139°46'0 0.0
2018-Apr-24 07:30N 35°38' E 139°46'0 0.0
2018-Apr-24 07:00N 35°38' E 139°46'0 0.0
2018-Apr-24 06:30N 35°38' E 139°46'0 0.0
2018-Apr-24 05:58N 35°38' E 139°46'0 0.0
2018-Apr-24 05:28N 35°38' E 139°46'0 0.0
2018-Apr-24 04:59N 35°38' E 139°46'0 0.0
2018-Apr-24 04:30N 35°38' E 139°46'0 0.0
2018-Apr-24 03:59N 35°38' E 139°46'0 0.0
2018-Apr-24 03:30N 35°38' E 139°46'2 3.4
2018-Apr-24 03:00N 35°37' E 139°47'2 3.1
2018-Apr-24 02:28N 35°38' E 139°46'0 0.0
2018-Apr-24 02:00N 35°38' E 139°46'0 0.0
2018-Apr-24 01:30N 35°38' E 139°46'0 0.0
2018-Apr-24 00:57N 35°38' E 139°46'0 0.0
2018-Apr-24 00:28N 35°38' E 139°46'0 0.0
2018-Apr-23 23:58N 35°38' E 139°46'1 2.1
2018-Apr-23 23:30N 35°37' E 139°46'1 1.3
2018-Apr-23 22:57N 35°37' E 139°46'3 5.6
2018-Apr-23 22:30N 35°35' E 139°48'2 3.5
2018-Apr-23 22:00N 35°36' E 139°47'2 4.8
2018-Apr-23 21:30N 35°38' E 139°46'0 0.0
2018-Apr-23 21:00N 35°38' E 139°46'0 0.0
2018-Apr-23 20:30N 35°38' E 139°46'0 0.0
2018-Apr-23 20:00N 35°38' E 139°46'0 0.0
2018-Apr-23 19:30N 35°38' E 139°46'0 0.0
2018-Apr-23 19:00N 35°38' E 139°46'0 0.0
2018-Apr-23 18:30N 35°38' E 139°46'0 0.0
2018-Apr-23 17:59N 35°38' E 139°46'0 0.0
2018-Apr-23 17:30N 35°38' E 139°46'0 0.0
2018-Apr-23 17:00N 35°38' E 139°46'0 0.0
2018-Apr-23 16:29N 35°38' E 139°46'0 0.0
2018-Apr-23 15:59N 35°38' E 139°46'0 0.0
2018-Apr-23 15:29N 35°38' E 139°46'0 0.0
2018-Apr-23 15:00N 35°38' E 139°46'0 0.0
2018-Apr-23 14:29N 35°38' E 139°46'0 0.0
2018-Apr-23 14:00N 35°38' E 139°46'0 0.0
2018-Apr-23 13:30N 35°38' E 139°46'0 0.0
2018-Apr-23 13:00N 35°38' E 139°46'0 0.0
2018-Apr-23 12:30N 35°38' E 139°46'0 0.0
2018-Apr-23 11:59N 35°38' E 139°46'0 0.0
2018-Apr-23 11:30N 35°38' E 139°46'0 0.0
2018-Apr-23 10:59N 35°38' E 139°46'0 0.0
2018-Apr-23 10:28N 35°38' E 139°46'0 0.0
2018-Apr-23 09:57N 35°38' E 139°46'2 3.7
2018-Apr-23 09:30N 35°37' E 139°46'1 1.4
2018-Apr-23 09:00N 35°37' E 139°46'1 0.6
2018-Apr-23 07:12N 35°38' E 139°45'0 0.0
2018-Apr-23 07:00N 35°38' E 139°45'0 0.0
2018-Apr-23 05:38N 35°38' E 139°45'0 0.0
2018-Apr-23 05:26N 35°38' E 139°45'0 0.0
2018-Apr-23 04:46N 35°38' E 139°45'0 0.0
2018-Apr-23 04:25N 35°38' E 139°45'2 4.9
2018-Apr-23 03:59N 35°36' E 139°47'1 1.1
2018-Apr-23 03:29N 35°37' E 139°46'2 2.2
2018-Apr-23 02:44N 35°38' E 139°45'0 0.0
2018-Apr-23 02:20N 35°38' E 139°45'0 0.0
2018-Apr-23 01:45N 35°38' E 139°45'0 0.0
2018-Apr-23 01:22N 35°38' E 139°45'0 0.0
2018-Apr-23 00:58N 35°38' E 139°45'0 0.0
2018-Apr-23 00:16N 35°38' E 139°45'0 0.0
2018-Apr-22 23:57N 35°38' E 139°45'0 0.0
2018-Apr-22 14:02N 35°38' E 139°45'0 0.0
2018-Apr-22 13:58N 35°38' E 139°45'0 0.1
2018-Apr-22 13:24N 35°38' E 139°46'0 0.1
2018-Apr-22 12:44N 35°38' E 139°45'0 0.0
2018-Apr-22 12:19N 35°38' E 139°45'0 0.0
2018-Apr-22 11:49N 35°38' E 139°45'0 0.0
2018-Apr-22 11:20N 35°38' E 139°45'0 0.0
2018-Apr-22 10:49N 35°38' E 139°45'2 5.6
2018-Apr-22 10:30N 35°37' E 139°46'0 0.3
2018-Apr-22 10:00N 35°37' E 139°47'1 1.6
2018-Apr-22 09:29N 35°37' E 139°46'1 2.0
2018-Apr-22 08:59N 35°38' E 139°46'0 0.0
2018-Apr-22 08:26N 35°38' E 139°46'0 0.0
2018-Apr-22 08:00N 35°38' E 139°46'0 0.0
2018-Apr-22 06:44N 35°38' E 139°46'0 0.0
2018-Apr-22 06:28N 35°38' E 139°46'0 0.0
2018-Apr-22 05:59N 35°38' E 139°46'0 0.0
2018-Apr-22 05:23N 35°38' E 139°46'0 0.0
2018-Apr-22 04:52N 35°38' E 139°46'0 0.0
2018-Apr-22 04:24N 35°38' E 139°46'0 0.0
2018-Apr-22 04:00N 35°38' E 139°46'0 0.0
2018-Apr-22 03:28N 35°38' E 139°46'0 0.0
2018-Apr-22 03:00N 35°38' E 139°46'0 0.0
2018-Apr-22 02:29N 35°38' E 139°46'0 0.0
2018-Apr-22 02:00N 35°38' E 139°46'0 0.0
2018-Apr-22 01:30N 35°38' E 139°46'1 2.5
2018-Apr-22 01:00N 35°37' E 139°46'1 1.6
2018-Apr-22 00:30N 35°37' E 139°47'1 2.5
2018-Apr-22 00:00N 35°37' E 139°48'2 3.9
2018-Apr-21 23:29N 35°36' E 139°51'1 1.3
2018-Apr-21 23:00N 35°36' E 139°50'3 5.2
2018-Apr-21 22:26N 35°36' E 139°46'2 4.1
2018-Apr-21 22:00N 35°35' E 139°48'1 1.3
2018-Apr-21 21:29N 35°35' E 139°47'3 5.7
2018-Apr-21 20:56N 35°38' E 139°45'0 0.0
2018-Apr-21 20:29N 35°38' E 139°45'0 0.0
2018-Apr-21 19:59N 35°38' E 139°45'0 0.0
2018-Apr-21 19:29N 35°38' E 139°45'0 0.0
2018-Apr-21 18:56N 35°38' E 139°45'0 0.0
2018-Apr-21 18:27N 35°38' E 139°45'0 0.0
2018-Apr-21 18:00N 35°38' E 139°45'0 0.0
2018-Apr-21 17:30N 35°38' E 139°45'0 0.0
2018-Apr-21 17:00N 35°38' E 139°45'0 0.0
2018-Apr-21 16:30N 35°38' E 139°45'0 0.1
2018-Apr-21 16:00N 35°38' E 139°46'0 0.1
2018-Apr-21 15:30N 35°38' E 139°45'0 0.0
2018-Apr-21 14:58N 35°38' E 139°45'0 0.0
2018-Apr-21 14:28N 35°38' E 139°45'0 0.0
2018-Apr-21 14:00N 35°38' E 139°45'0 0.0
2018-Apr-21 13:29N 35°38' E 139°45'0 0.0
2018-Apr-21 13:00N 35°38' E 139°45'0 0.0
2018-Apr-21 12:30N 35°38' E 139°45'0 0.0
2018-Apr-21 11:57N 35°38' E 139°45'0 0.0
2018-Apr-21 11:29N 35°38' E 139°45'2 4.2
2018-Apr-21 11:00N 35°36' E 139°46'0 0.8
2018-Apr-21 10:30N 35°36' E 139°47'3 5.7
2018-Apr-21 10:00N 35°34' E 139°49'2 3.5
2018-Apr-21 09:30N 35°35' E 139°48'1 0.6
2018-Apr-21 08:08N 35°36' E 139°47'1 4.9
2018-Apr-21 08:00N 35°36' E 139°47'1 2.5
2018-Apr-21 07:30N 35°37' E 139°46'2 1.5
2018-Apr-21 06:29N 35°38' E 139°45'0 0.0
2018-Apr-21 04:59N 35°38' E 139°45'0 0.0
2018-Apr-21 04:19N 35°38' E 139°45'0 0.0
2018-Apr-21 03:25N 35°38' E 139°45'0 0.0
2018-Apr-21 02:54N 35°38' E 139°45'0 0.0
2018-Apr-21 02:14N 35°38' E 139°45'0 0.0
2018-Apr-21 01:36N 35°38' E 139°45'0 0.2
2018-Apr-21 01:29N 35°38' E 139°45'0 0.0
2018-Apr-21 00:57N 35°38' E 139°45'0 0.0
2018-Apr-21 00:28N 35°38' E 139°45'0 0.0
2018-Apr-20 23:59N 35°38' E 139°45'0 0.0
2018-Apr-20 23:30N 35°38' E 139°45'2 4.1
2018-Apr-20 22:59N 35°36' E 139°46'1 1.1
2018-Apr-20 22:30N 35°36' E 139°47'4 8.5
2018-Apr-20 22:00N 35°33' E 139°51'2 4.1
2018-Apr-20 21:30N 35°33' E 139°53'5 9.8
2018-Apr-20 21:00N 35°35' E 139°48'1 0.7
2018-Apr-20 19:38N 35°36' E 139°47'1 6.1
2018-Apr-20 19:30N 35°36' E 139°46'0 0.6
2018-Apr-20 18:58N 35°37' E 139°46'0 0.7
2018-Apr-20 18:30N 35°37' E 139°46'1 2.4
2018-Apr-20 17:56N 35°38' E 139°45'0 0.0
2018-Apr-20 17:21N 35°38' E 139°45'0 0.0
2018-Apr-20 16:47N 35°38' E 139°45'0 0.0
2018-Apr-20 16:29N 35°38' E 139°45'0 0.0
2018-Apr-20 15:58N 35°38' E 139°45'0 0.0
2018-Apr-20 15:28N 35°38' E 139°45'0 0.0
2018-Apr-20 14:58N 35°38' E 139°45'0 0.0
2018-Apr-20 14:28N 35°38' E 139°45'0 0.0
2018-Apr-20 13:58N 35°38' E 139°45'0 0.0
2018-Apr-20 13:25N 35°38' E 139°45'0 0.0
2018-Apr-20 12:58N 35°38' E 139°45'0 0.0
2018-Apr-20 12:28N 35°38' E 139°45'0 0.0
2018-Apr-20 11:59N 35°38' E 139°45'0 0.0
2018-Apr-20 11:30N 35°38' E 139°45'0 0.0
2018-Apr-20 11:00N 35°38' E 139°45'0 0.0
2018-Apr-20 10:30N 35°38' E 139°45'0 0.0
2018-Apr-20 09:56N 35°38' E 139°45'0 0.0
2018-Apr-20 09:29N 35°38' E 139°45'0 0.0
2018-Apr-20 08:46N 35°38' E 139°45'0 0.0
2018-Apr-20 08:29N 35°38' E 139°45'0 0.0
2018-Apr-20 08:00N 35°38' E 139°45'0 0.0
2018-Apr-20 07:28N 35°38' E 139°45'0 0.0
2018-Apr-20 06:57N 35°38' E 139°45'0 0.0
2018-Apr-20 06:19N 35°38' E 139°45'0 0.0
2018-Apr-20 05:53N 35°38' E 139°45'0 0.0
2018-Apr-20 04:45N 35°38' E 139°45'0 0.0
2018-Apr-20 04:30N 35°38' E 139°45'0 0.0
2018-Apr-20 04:00N 35°38' E 139°45'0 0.0
2018-Apr-20 03:27N 35°38' E 139°45'2 4.0
2018-Apr-20 03:00N 35°37' E 139°47'1 2.8
2018-Apr-20 02:30N 35°35' E 139°47'2 4.2
2018-Apr-20 01:59N 35°34' E 139°49'3 1.9
2018-Apr-20 00:41N 35°35' E 139°47'0 0.2
2018-Apr-20 00:27N 35°35' E 139°47'1 2.1
2018-Apr-20 00:00N 35°36' E 139°46'0 0.5
2018-Apr-19 23:30N 35°36' E 139°46'2 3.1
2018-Apr-19 22:55N 35°38' E 139°46'0 0.0
2018-Apr-19 22:06N 35°38' E 139°46'0 0.0
2018-Apr-19 21:53N 35°38' E 139°46'0 0.0
2018-Apr-19 20:54N 35°38' E 139°46'0 0.0
2018-Apr-19 20:27N 35°38' E 139°46'0 0.0
2018-Apr-19 19:57N 35°38' E 139°46'0 0.0
2018-Apr-19 19:27N 35°38' E 139°46'0 0.0
2018-Apr-19 18:54N 35°38' E 139°46'0 0.0
2018-Apr-19 18:17N 35°38' E 139°46'0 0.0
2018-Apr-19 18:00N 35°38' E 139°46'0 0.0
2018-Apr-19 17:30N 35°38' E 139°46'0 0.0
2018-Apr-19 16:42N 35°38' E 139°46'0 0.0
2018-Apr-19 16:30N 35°38' E 139°46'0 0.0
2018-Apr-19 15:51N 35°38' E 139°46'0 0.0
2018-Apr-19 15:28N 35°38' E 139°46'0 0.0
2018-Apr-19 14:58N 35°38' E 139°46'0 0.0
2018-Apr-19 14:28N 35°38' E 139°46'0 0.0
2018-Apr-19 13:59N 35°38' E 139°46'0 0.0
2018-Apr-19 13:30N 35°38' E 139°46'0 0.0
2018-Apr-19 13:00N 35°38' E 139°46'0 0.0
2018-Apr-19 12:30N 35°38' E 139°46'0 0.0
2018-Apr-19 12:00N 35°38' E 139°46'0 0.0
2018-Apr-19 11:30N 35°38' E 139°46'0 0.0
2018-Apr-19 10:58N 35°38' E 139°46'0 0.0
2018-Apr-19 10:29N 35°38' E 139°46'0 0.0
2018-Apr-19 09:53N 35°38' E 139°46'0 0.0
2018-Apr-19 09:28N 35°38' E 139°46'0 0.0
2018-Apr-19 08:57N 35°38' E 139°46'2 4.0
2018-Apr-19 08:30N 35°37' E 139°46'0 0.7
2018-Apr-19 08:00N 35°37' E 139°47'2 3.2
2018-Apr-19 07:23N 35°38' E 139°45'0 0.1
2018-Apr-19 06:54N 35°38' E 139°45'0 0.0
2018-Apr-19 06:28N 35°38' E 139°45'0 0.0
2018-Apr-19 05:51N 35°38' E 139°45'0 0.0
2018-Apr-19 05:29N 35°38' E 139°45'0 0.0
2018-Apr-19 05:00N 35°38' E 139°45'0 0.0
2018-Apr-19 04:30N 35°38' E 139°45'0 0.0
2018-Apr-19 03:59N 35°38' E 139°45'0 0.0
2018-Apr-19 03:19N 35°38' E 139°45'0 0.0
2018-Apr-19 02:59N 35°38' E 139°45'0 0.0
2018-Apr-19 02:28N 35°38' E 139°45'1 2.4
2018-Apr-19 01:58N 35°37' E 139°46'2 5.0
2018-Apr-19 01:30N 35°35' E 139°48'1 1.8
2018-Apr-19 00:58N 35°34' E 139°48'3 6.7
2018-Apr-19 00:30N 35°37' E 139°46'1 2.4
2018-Apr-19 00:00N 35°38' E 139°45'0 0.0
2018-Apr-18 17:09N 35°38' E 139°45'0 0.0
2018-Apr-18 14:04N 35°38' E 139°45'0 0.0
2018-Apr-18 13:56N 35°38' E 139°45'0 0.0
2018-Apr-18 13:26N 35°38' E 139°45'0 0.0
2018-Apr-18 09:33N 35°38' E 139°45'0 6.2
2018-Apr-18 09:30N 35°38' E 139°46'2 3.6
2018-Apr-18 09:00N 35°36' E 139°46'1 2.9
2018-Apr-18 08:30N 35°35' E 139°47'1 0.6
2018-Apr-18 07:16N 35°36' E 139°47'1 1.8
2018-Apr-18 06:55N 35°36' E 139°46'1 2.1
2018-Apr-18 06:27N 35°37' E 139°46'1 2.2
2018-Apr-18 05:54N 35°38' E 139°45'0 0.0
2018-Apr-18 05:29N 35°38' E 139°45'0 0.0
2018-Apr-18 04:53N 35°38' E 139°45'0 0.0
2018-Apr-18 04:28N 35°38' E 139°45'0 0.0
2018-Apr-18 03:57N 35°38' E 139°45'0 0.0
2018-Apr-18 03:24N 35°38' E 139°45'2 3.9
2018-Apr-18 03:00N 35°37' E 139°46'1 1.7
2018-Apr-18 02:30N 35°36' E 139°47'0 0.4
2018-Apr-18 02:00N 35°36' E 139°46'1 2.0
2018-Apr-18 01:29N 35°37' E 139°46'1 1.6
2018-Apr-18 00:32N 35°38' E 139°45'0 0.0
2018-Apr-18 00:05N 35°38' E 139°45'0 0.0
2018-Apr-17 23:43N 35°38' E 139°45'0 0.0
2018-Apr-17 23:30N 35°38' E 139°45'0 0.0
2018-Apr-17 16:16N 35°38' E 139°45'0 0.0
2018-Apr-17 15:05N 35°38' E 139°45'0 0.0
2018-Apr-17 14:44N 35°38' E 139°45'0 0.0
2018-Apr-17 14:01N 35°38' E 139°45'0 0.0
2018-Apr-17 13:45N 35°38' E 139°45'0 0.0
2018-Apr-17 13:25N 35°38' E 139°45'0 0.0
2018-Apr-17 12:54N 35°38' E 139°45'0 0.0
2018-Apr-17 10:18N 35°38' E 139°45'2 5.8
2018-Apr-17 10:00N 35°37' E 139°47'1 1.0
2018-Apr-17 09:30N 35°36' E 139°47'3 5.2
2018-Apr-17 09:00N 35°34' E 139°49'1 1.2
2018-Apr-17 08:30N 35°34' E 139°49'3 6.5
2018-Apr-17 08:00N 35°36' E 139°46'1 1.7
2018-Apr-17 07:29N 35°37' E 139°46'1 2.4
2018-Apr-17 06:56N 35°38' E 139°45'0 0.0
2018-Apr-17 06:22N 35°38' E 139°45'0 0.1
2018-Apr-17 05:56N 35°38' E 139°45'0 0.1
2018-Apr-17 05:28N 35°38' E 139°45'0 0.0
2018-Apr-17 00:33N 35°38' E 139°45'0 0.0
2018-Apr-17 00:23N 35°38' E 139°45'0 0.0
2018-Apr-16 23:59N 35°38' E 139°45'2 2.9
2018-Apr-16 23:28N 35°37' E 139°46'0 0.8
2018-Apr-16 22:59N 35°36' E 139°46'1 1.5
2018-Apr-16 22:30N 35°36' E 139°47'3 5.7
2018-Apr-16 22:00N 35°34' E 139°49'2 4.5
2018-Apr-16 21:29N 35°36' E 139°48'0 0.0
2018-Apr-16 21:00N 35°36' E 139°48'1 1.7
2018-Apr-16 20:30N 35°37' E 139°47'1 1.7
2018-Apr-16 19:59N 35°37' E 139°46'1 2.4
2018-Apr-16 19:27N 35°38' E 139°45'0 0.0
2018-Apr-16 18:57N 35°38' E 139°45'0 0.0
2018-Apr-16 18:29N 35°38' E 139°45'0 0.0
2018-Apr-16 17:57N 35°38' E 139°45'0 0.0
2018-Apr-16 17:30N 35°38' E 139°45'0 0.0
2018-Apr-16 17:00N 35°38' E 139°45'0 0.0
2018-Apr-16 16:30N 35°38' E 139°45'0 0.0
2018-Apr-16 16:00N 35°38' E 139°45'0 0.0
2018-Apr-16 15:27N 35°38' E 139°45'0 0.0
2018-Apr-16 15:00N 35°38' E 139°45'0 0.0
2018-Apr-16 14:24N 35°38' E 139°45'0 0.0
2018-Apr-16 13:43N 35°38' E 139°45'0 0.0
2018-Apr-16 12:47N 35°38' E 139°45'0 0.0
2018-Apr-16 12:30N 35°38' E 139°45'0 0.0
2018-Apr-16 11:51N 35°38' E 139°45'0 0.0
2018-Apr-16 11:24N 35°38' E 139°45'0 0.0
2018-Apr-16 10:56N 35°38' E 139°45'0 0.0
2018-Apr-16 10:30N 35°38' E 139°45'0 0.0
2018-Apr-16 09:59N 35°38' E 139°45'0 0.0
2018-Apr-16 09:24N 35°38' E 139°45'0 0.0
2018-Apr-16 09:00N 35°38' E 139°45'0 0.0
2018-Apr-16 08:30N 35°38' E 139°45'0 0.0
2018-Apr-16 07:56N 35°38' E 139°45'0 0.0
2018-Apr-16 07:29N 35°38' E 139°45'0 0.0
2018-Apr-16 07:00N 35°38' E 139°45'0 0.1
2018-Apr-16 06:30N 35°38' E 139°46'0 0.1
2018-Apr-16 05:59N 35°38' E 139°45'0 0.0
2018-Apr-16 05:29N 35°38' E 139°45'0 0.0
2018-Apr-16 04:59N 35°38' E 139°45'0 0.0
2018-Apr-16 04:27N 35°38' E 139°45'0 0.0
2018-Apr-16 03:12N 35°38' E 139°45'0 0.0
2018-Apr-16 02:54N 35°38' E 139°45'0 0.0
2018-Apr-16 02:28N 35°38' E 139°45'0 0.0
2018-Apr-16 01:59N 35°38' E 139°45'0 0.0
2018-Apr-16 01:28N 35°38' E 139°45'0 0.0
2018-Apr-16 00:53N 35°38' E 139°45'0 0.0
2018-Apr-16 00:20N 35°38' E 139°45'0 0.0
2018-Apr-15 23:59N 35°38' E 139°45'2 3.8
2018-Apr-15 23:30N 35°36' E 139°46'0 0.1
2018-Apr-15 23:00N 35°36' E 139°46'1 1.7
2018-Apr-15 22:29N 35°36' E 139°47'2 4.4
2018-Apr-15 21:59N 35°34' E 139°49'1 1.4
2018-Apr-15 21:30N 35°34' E 139°49'  

Dump ship's entire track history